sensor_id;sensor_type;location;lat;lon;timestamp;P1;durP1;ratioP1;P2;durP2;ratioP2
75189;SDS011;69198;44.694;37.790;2023-07-28T00:00:44;8.25;;;4.55;;
75189;SDS011;69198;44.694;37.790;2023-07-28T00:01:45;9.50;;;4.90;;
75189;SDS011;69198;44.694;37.790;2023-07-28T00:02:46;9.10;;;4.80;;
75189;SDS011;69198;44.694;37.790;2023-07-28T00:03:46;9.57;;;5.05;;
75189;SDS011;69198;44.694;37.790;2023-07-28T00:04:47;10.70;;;4.65;;
75189;SDS011;69198;44.694;37.790;2023-07-28T00:05:48;11.15;;;4.75;;
75189;SDS011;69198;44.694;37.790;2023-07-28T00:06:50;9.27;;;5.05;;
75189;SDS011;69198;44.694;37.790;2023-07-28T00:07:51;9.65;;;5.00;;
75189;SDS011;69198;44.694;37.790;2023-07-28T00:08:52;8.73;;;4.90;;
75189;SDS011;69198;44.694;37.790;2023-07-28T00:09:53;9.98;;;5.18;;
75189;SDS011;69198;44.694;37.790;2023-07-28T00:10:54;10.70;;;4.93;;
75189;SDS011;69198;44.694;37.790;2023-07-28T00:11:56;10.23;;;4.63;;
75189;SDS011;69198;44.694;37.790;2023-07-28T00:12:58;8.83;;;4.70;;
75189;SDS011;69198;44.694;37.790;2023-07-28T00:14:00;8.95;;;4.80;;
75189;SDS011;69198;44.694;37.790;2023-07-28T00:15:01;9.90;;;4.78;;
75189;SDS011;69198;44.694;37.790;2023-07-28T00:16:04;9.43;;;4.55;;
75189;SDS011;69198;44.694;37.790;2023-07-28T00:17:06;10.88;;;4.68;;
75189;SDS011;69198;44.694;37.790;2023-07-28T00:18:07;8.20;;;4.25;;
75189;SDS011;69198;44.694;37.790;2023-07-28T00:19:08;9.32;;;4.93;;
75189;SDS011;69198;44.694;37.790;2023-07-28T00:20:09;9.70;;;4.68;;
75189;SDS011;69198;44.694;37.790;2023-07-28T00:21:11;8.85;;;4.90;;
75189;SDS011;69198;44.694;37.790;2023-07-28T00:22:12;8.82;;;4.80;;
75189;SDS011;69198;44.694;37.790;2023-07-28T00:23:13;9.20;;;4.77;;
75189;SDS011;69198;44.694;37.790;2023-07-28T00:24:14;9.68;;;4.82;;
75189;SDS011;69198;44.694;37.790;2023-07-28T00:25:17;8.70;;;4.80;;
75189;SDS011;69198;44.694;37.790;2023-07-28T00:26:18;9.80;;;5.32;;
75189;SDS011;69198;44.694;37.790;2023-07-28T00:27:19;9.15;;;4.93;;
75189;SDS011;69198;44.694;37.790;2023-07-28T00:28:20;9.68;;;5.20;;
75189;SDS011;69198;44.694;37.790;2023-07-28T00:29:21;10.90;;;5.40;;
75189;SDS011;69198;44.694;37.790;2023-07-28T00:30:22;8.75;;;4.85;;
75189;SDS011;69198;44.694;37.790;2023-07-28T00:31:23;9.50;;;5.45;;
75189;SDS011;69198;44.694;37.790;2023-07-28T00:32:24;10.75;;;5.55;;
75189;SDS011;69198;44.694;37.790;2023-07-28T00:33:25;11.63;;;6.30;;
75189;SDS011;69198;44.694;37.790;2023-07-28T00:34:26;10.57;;;6.07;;
75189;SDS011;69198;44.694;37.790;2023-07-28T00:35:28;11.68;;;6.10;;
75189;SDS011;69198;44.694;37.790;2023-07-28T00:36:29;13.07;;;6.00;;
75189;SDS011;69198;44.694;37.790;2023-07-28T00:37:31;10.82;;;5.72;;
75189;SDS011;69198;44.694;37.790;2023-07-28T00:38:32;12.68;;;6.30;;
75189;SDS011;69198;44.694;37.790;2023-07-28T00:39:33;10.30;;;6.05;;
75189;SDS011;69198;44.694;37.790;2023-07-28T00:40:35;11.32;;;5.97;;
75189;SDS011;69198;44.694;37.790;2023-07-28T00:41:36;10.68;;;5.60;;
75189;SDS011;69198;44.694;37.790;2023-07-28T00:42:37;11.30;;;6.40;;
75189;SDS011;69198;44.694;37.790;2023-07-28T00:43:38;10.93;;;6.20;;
75189;SDS011;69198;44.694;37.790;2023-07-28T00:44:39;10.70;;;5.90;;
75189;SDS011;69198;44.694;37.790;2023-07-28T00:45:40;12.00;;;5.80;;
75189;SDS011;69198;44.694;37.790;2023-07-28T00:46:41;9.93;;;5.60;;
75189;SDS011;69198;44.694;37.790;2023-07-28T00:47:44;11.45;;;5.93;;
75189;SDS011;69198;44.694;37.790;2023-07-28T00:48:46;11.35;;;5.60;;
75189;SDS011;69198;44.694;37.790;2023-07-28T00:49:47;10.52;;;5.60;;
75189;SDS011;69198;44.694;37.790;2023-07-28T00:50:48;10.48;;;5.60;;
75189;SDS011;69198;44.694;37.790;2023-07-28T00:51:50;12.45;;;6.00;;
75189;SDS011;69198;44.694;37.790;2023-07-28T00:52:52;13.32;;;5.72;;
75189;SDS011;69198;44.694;37.790;2023-07-28T00:53:53;11.37;;;5.50;;
75189;SDS011;69198;44.694;37.790;2023-07-28T00:54:54;11.70;;;6.07;;
75189;SDS011;69198;44.694;37.790;2023-07-28T00:55:55;9.95;;;5.43;;
75189;SDS011;69198;44.694;37.790;2023-07-28T00:56:56;11.48;;;5.50;;
75189;SDS011;69198;44.694;37.790;2023-07-28T00:57:58;11.38;;;5.38;;
75189;SDS011;69198;44.694;37.790;2023-07-28T00:58:59;10.95;;;5.10;;
75189;SDS011;69198;44.694;37.790;2023-07-28T01:00:00;13.10;;;5.50;;
75189;SDS011;69198;44.694;37.790;2023-07-28T01:01:03;11.75;;;4.85;;
75189;SDS011;69198;44.694;37.790;2023-07-28T01:02:04;9.35;;;4.80;;
75189;SDS011;69198;44.694;37.790;2023-07-28T01:03:05;10.33;;;4.87;;
75189;SDS011;69198;44.694;37.790;2023-07-28T01:04:07;11.45;;;4.55;;
75189;SDS011;69198;44.694;37.790;2023-07-28T01:05:08;8.52;;;4.82;;
75189;SDS011;69198;44.694;37.790;2023-07-28T01:07:24;11.77;;;4.97;;
75189;SDS011;69198;44.694;37.790;2023-07-28T01:08:36;10.57;;;5.03;;
75189;SDS011;69198;44.694;37.790;2023-07-28T01:09:46;11.75;;;5.22;;
75189;SDS011;69198;44.694;37.790;2023-07-28T01:11:03;10.63;;;5.05;;
75189;SDS011;69198;44.694;37.790;2023-07-28T01:12:06;10.30;;;4.78;;
75189;SDS011;69198;44.694;37.790;2023-07-28T01:13:09;9.65;;;4.78;;
75189;SDS011;69198;44.694;37.790;2023-07-28T01:14:10;11.77;;;5.30;;
75189;SDS011;69198;44.694;37.790;2023-07-28T01:15:11;11.27;;;4.60;;
75189;SDS011;69198;44.694;37.790;2023-07-28T01:16:15;11.55;;;5.40;;
75189;SDS011;69198;44.694;37.790;2023-07-28T01:17:16;12.13;;;5.15;;
75189;SDS011;69198;44.694;37.790;2023-07-28T01:18:18;9.93;;;4.85;;
75189;SDS011;69198;44.694;37.790;2023-07-28T01:19:20;15.90;;;5.25;;
75189;SDS011;69198;44.694;37.790;2023-07-28T01:20:22;11.18;;;5.28;;
75189;SDS011;69198;44.694;37.790;2023-07-28T01:21:30;12.90;;;4.85;;
75189;SDS011;69198;44.694;37.790;2023-07-28T01:23:55;16.17;;;5.30;;
75189;SDS011;69198;44.694;37.790;2023-07-28T01:26:35;10.95;;;5.00;;
75189;SDS011;69198;44.694;37.790;2023-07-28T01:27:37;11.15;;;5.13;;
75189;SDS011;69198;44.694;37.790;2023-07-28T01:28:42;12.35;;;5.07;;
75189;SDS011;69198;44.694;37.790;2023-07-28T01:29:44;13.20;;;4.90;;
75189;SDS011;69198;44.694;37.790;2023-07-28T01:30:46;11.00;;;4.00;;
75189;SDS011;69198;44.694;37.790;2023-07-28T01:31:48;11.88;;;4.60;;
75189;SDS011;69198;44.694;37.790;2023-07-28T01:32:49;13.35;;;4.30;;
75189;SDS011;69198;44.694;37.790;2023-07-28T01:33:50;12.07;;;4.55;;
75189;SDS011;69198;44.694;37.790;2023-07-28T01:34:51;11.33;;;4.53;;
75189;SDS011;69198;44.694;37.790;2023-07-28T01:35:52;11.40;;;3.72;;
75189;SDS011;69198;44.694;37.790;2023-07-28T01:36:53;12.85;;;4.30;;
75189;SDS011;69198;44.694;37.790;2023-07-28T01:37:54;14.93;;;4.07;;
75189;SDS011;69198;44.694;37.790;2023-07-28T01:38:55;12.88;;;4.65;;
75189;SDS011;69198;44.694;37.790;2023-07-28T01:39:56;11.77;;;3.60;;
75189;SDS011;69198;44.694;37.790;2023-07-28T01:40:57;11.35;;;4.25;;
75189;SDS011;69198;44.694;37.790;2023-07-28T01:41:59;12.10;;;4.47;;
75189;SDS011;69198;44.694;37.790;2023-07-28T01:43:00;14.25;;;4.20;;
75189;SDS011;69198;44.694;37.790;2023-07-28T01:44:01;16.67;;;4.60;;
75189;SDS011;69198;44.694;37.790;2023-07-28T01:45:02;12.65;;;4.25;;
75189;SDS011;69198;44.694;37.790;2023-07-28T01:46:04;15.35;;;4.72;;
75189;SDS011;69198;44.694;37.790;2023-07-28T01:47:05;16.20;;;4.35;;
75189;SDS011;69198;44.694;37.790;2023-07-28T01:48:06;12.55;;;4.40;;
75189;SDS011;69198;44.694;37.790;2023-07-28T01:49:09;13.18;;;4.43;;
75189;SDS011;69198;44.694;37.790;2023-07-28T01:50:10;12.45;;;4.18;;
75189;SDS011;69198;44.694;37.790;2023-07-28T01:51:11;13.38;;;4.45;;
75189;SDS011;69198;44.694;37.790;2023-07-28T01:52:12;15.93;;;4.65;;
75189;SDS011;69198;44.694;37.790;2023-07-28T01:53:13;11.87;;;4.17;;
75189;SDS011;69198;44.694;37.790;2023-07-28T01:54:14;11.87;;;4.63;;
75189;SDS011;69198;44.694;37.790;2023-07-28T01:55:15;11.27;;;4.20;;
75189;SDS011;69198;44.694;37.790;2023-07-28T01:56:16;13.75;;;4.55;;
75189;SDS011;69198;44.694;37.790;2023-07-28T01:57:18;14.43;;;4.30;;
75189;SDS011;69198;44.694;37.790;2023-07-28T01:58:19;12.15;;;4.53;;
75189;SDS011;69198;44.694;37.790;2023-07-28T01:59:20;10.20;;;4.10;;
75189;SDS011;69198;44.694;37.790;2023-07-28T02:00:22;13.32;;;4.43;;
75189;SDS011;69198;44.694;37.790;2023-07-28T02:01:23;13.65;;;4.40;;
75189;SDS011;69198;44.694;37.790;2023-07-28T02:02:24;11.85;;;4.38;;
75189;SDS011;69198;44.694;37.790;2023-07-28T02:03:25;10.97;;;4.40;;
75189;SDS011;69198;44.694;37.790;2023-07-28T02:04:26;13.55;;;4.35;;
75189;SDS011;69198;44.694;37.790;2023-07-28T02:05:27;11.98;;;4.50;;
75189;SDS011;69198;44.694;37.790;2023-07-28T02:06:29;14.25;;;4.43;;
75189;SDS011;69198;44.694;37.790;2023-07-28T02:07:31;13.68;;;4.22;;
75189;SDS011;69198;44.694;37.790;2023-07-28T02:08:32;13.68;;;4.47;;
75189;SDS011;69198;44.694;37.790;2023-07-28T02:09:33;15.10;;;4.95;;
75189;SDS011;69198;44.694;37.790;2023-07-28T02:10:34;14.30;;;4.50;;
75189;SDS011;69198;44.694;37.790;2023-07-28T02:11:36;11.93;;;4.50;;
75189;SDS011;69198;44.694;37.790;2023-07-28T02:12:37;13.50;;;4.20;;
75189;SDS011;69198;44.694;37.790;2023-07-28T02:13:38;14.05;;;4.72;;
75189;SDS011;69198;44.694;37.790;2023-07-28T02:14:39;13.18;;;4.63;;
75189;SDS011;69198;44.694;37.790;2023-07-28T02:15:40;10.95;;;4.25;;
75189;SDS011;69198;44.694;37.790;2023-07-28T02:16:42;13.93;;;4.63;;
75189;SDS011;69198;44.694;37.790;2023-07-28T02:17:43;14.02;;;4.63;;
75189;SDS011;69198;44.694;37.790;2023-07-28T02:18:44;12.05;;;4.60;;
75189;SDS011;69198;44.694;37.790;2023-07-28T02:19:45;15.38;;;4.43;;
75189;SDS011;69198;44.694;37.790;2023-07-28T02:20:49;14.80;;;5.00;;
75189;SDS011;69198;44.694;37.790;2023-07-28T02:21:50;10.07;;;4.60;;
75189;SDS011;69198;44.694;37.790;2023-07-28T02:22:51;12.25;;;4.85;;
75189;SDS011;69198;44.694;37.790;2023-07-28T02:23:52;13.65;;;4.72;;
75189;SDS011;69198;44.694;37.790;2023-07-28T02:24:53;13.43;;;4.55;;
75189;SDS011;69198;44.694;37.790;2023-07-28T02:25:54;17.40;;;4.80;;
75189;SDS011;69198;44.694;37.790;2023-07-28T02:26:57;19.25;;;4.43;;
75189;SDS011;69198;44.694;37.790;2023-07-28T02:28:00;13.90;;;4.78;;
75189;SDS011;69198;44.694;37.790;2023-07-28T02:29:01;12.03;;;4.20;;
75189;SDS011;69198;44.694;37.790;2023-07-28T02:30:02;13.55;;;4.53;;
75189;SDS011;69198;44.694;37.790;2023-07-28T02:31:04;17.23;;;4.93;;
75189;SDS011;69198;44.694;37.790;2023-07-28T02:32:06;12.18;;;5.07;;
75189;SDS011;69198;44.694;37.790;2023-07-28T02:33:07;15.15;;;5.10;;
75189;SDS011;69198;44.694;37.790;2023-07-28T02:34:08;16.75;;;4.75;;
75189;SDS011;69198;44.694;37.790;2023-07-28T02:35:09;15.43;;;4.35;;
75189;SDS011;69198;44.694;37.790;2023-07-28T02:36:10;12.52;;;4.65;;
75189;SDS011;69198;44.694;37.790;2023-07-28T02:37:12;11.15;;;4.65;;
75189;SDS011;69198;44.694;37.790;2023-07-28T02:38:13;15.60;;;4.43;;
75189;SDS011;69198;44.694;37.790;2023-07-28T02:39:14;14.32;;;4.57;;
75189;SDS011;69198;44.694;37.790;2023-07-28T02:40:15;13.25;;;4.72;;
75189;SDS011;69198;44.694;37.790;2023-07-28T02:41:16;14.35;;;4.90;;
75189;SDS011;69198;44.694;37.790;2023-07-28T02:42:17;18.95;;;5.00;;
75189;SDS011;69198;44.694;37.790;2023-07-28T02:43:19;16.58;;;4.45;;
75189;SDS011;69198;44.694;37.790;2023-07-28T02:44:20;15.32;;;4.90;;
75189;SDS011;69198;44.694;37.790;2023-07-28T02:45:20;12.43;;;4.65;;
75189;SDS011;69198;44.694;37.790;2023-07-28T02:46:22;12.38;;;4.50;;
75189;SDS011;69198;44.694;37.790;2023-07-28T02:47:23;12.80;;;4.80;;
75189;SDS011;69198;44.694;37.790;2023-07-28T02:48:24;14.00;;;5.00;;
75189;SDS011;69198;44.694;37.790;2023-07-28T02:49:25;13.88;;;5.43;;
75189;SDS011;69198;44.694;37.790;2023-07-28T02:50:26;14.35;;;4.97;;
75189;SDS011;69198;44.694;37.790;2023-07-28T02:51:27;13.05;;;4.68;;
75189;SDS011;69198;44.694;37.790;2023-07-28T02:52:28;16.10;;;4.75;;
75189;SDS011;69198;44.694;37.790;2023-07-28T02:53:30;13.82;;;5.03;;
75189;SDS011;69198;44.694;37.790;2023-07-28T02:54:31;12.98;;;5.03;;
75189;SDS011;69198;44.694;37.790;2023-07-28T02:55:32;13.40;;;4.97;;
75189;SDS011;69198;44.694;37.790;2023-07-28T02:56:34;13.47;;;5.87;;
75189;SDS011;69198;44.694;37.790;2023-07-28T02:57:43;19.35;;;5.60;;
75189;SDS011;69198;44.694;37.790;2023-07-28T02:58:45;17.73;;;5.57;;
75189;SDS011;69198;44.694;37.790;2023-07-28T02:59:46;12.18;;;5.28;;
75189;SDS011;69198;44.694;37.790;2023-07-28T03:00:47;16.73;;;4.97;;
75189;SDS011;69198;44.694;37.790;2023-07-28T03:01:53;16.48;;;5.13;;
75189;SDS011;69198;44.694;37.790;2023-07-28T03:02:55;14.95;;;5.10;;
75189;SDS011;69198;44.694;37.790;2023-07-28T03:03:56;15.98;;;5.03;;
75189;SDS011;69198;44.694;37.790;2023-07-28T03:04:57;14.85;;;4.82;;
75189;SDS011;69198;44.694;37.790;2023-07-28T03:06:16;13.53;;;5.10;;
75189;SDS011;69198;44.694;37.790;2023-07-28T03:07:17;15.77;;;4.68;;
75189;SDS011;69198;44.694;37.790;2023-07-28T03:08:23;15.38;;;4.85;;
75189;SDS011;69198;44.694;37.790;2023-07-28T03:09:24;14.55;;;5.53;;
75189;SDS011;69198;44.694;37.790;2023-07-28T03:10:35;17.75;;;4.78;;
75189;SDS011;69198;44.694;37.790;2023-07-28T03:11:36;16.10;;;5.25;;
75189;SDS011;69198;44.694;37.790;2023-07-28T03:12:37;15.07;;;5.07;;
75189;SDS011;69198;44.694;37.790;2023-07-28T03:13:38;15.88;;;5.00;;
75189;SDS011;69198;44.694;37.790;2023-07-28T03:14:39;16.20;;;5.18;;
75189;SDS011;69198;44.694;37.790;2023-07-28T03:15:41;12.10;;;4.90;;
75189;SDS011;69198;44.694;37.790;2023-07-28T03:16:41;14.77;;;4.97;;
75189;SDS011;69198;44.694;37.790;2023-07-28T03:17:42;14.85;;;5.18;;
75189;SDS011;69198;44.694;37.790;2023-07-28T03:18:43;29.40;;;5.78;;
75189;SDS011;69198;44.694;37.790;2023-07-28T03:19:45;16.33;;;4.93;;
75189;SDS011;69198;44.694;37.790;2023-07-28T03:20:46;14.75;;;4.80;;
75189;SDS011;69198;44.694;37.790;2023-07-28T03:21:48;14.77;;;5.00;;
75189;SDS011;69198;44.694;37.790;2023-07-28T03:22:49;15.77;;;4.80;;
75189;SDS011;69198;44.694;37.790;2023-07-28T03:23:50;17.52;;;4.97;;
75189;SDS011;69198;44.694;37.790;2023-07-28T03:24:51;15.73;;;4.90;;
75189;SDS011;69198;44.694;37.790;2023-07-28T03:25:52;15.70;;;5.07;;
75189;SDS011;69198;44.694;37.790;2023-07-28T03:26:53;14.40;;;5.53;;
75189;SDS011;69198;44.694;37.790;2023-07-28T03:27:55;19.58;;;5.40;;
75189;SDS011;69198;44.694;37.790;2023-07-28T03:28:56;16.05;;;4.68;;
75189;SDS011;69198;44.694;37.790;2023-07-28T03:29:57;16.45;;;4.80;;
75189;SDS011;69198;44.694;37.790;2023-07-28T03:30:58;18.10;;;5.20;;
75189;SDS011;69198;44.694;37.790;2023-07-28T03:31:59;14.27;;;4.82;;
75189;SDS011;69198;44.694;37.790;2023-07-28T03:33:01;18.05;;;4.97;;
75189;SDS011;69198;44.694;37.790;2023-07-28T03:34:02;20.17;;;5.40;;
75189;SDS011;69198;44.694;37.790;2023-07-28T03:35:06;14.60;;;5.28;;
75189;SDS011;69198;44.694;37.790;2023-07-28T03:36:13;17.87;;;5.77;;
75189;SDS011;69198;44.694;37.790;2023-07-28T03:37:14;14.93;;;4.50;;
75189;SDS011;69198;44.694;37.790;2023-07-28T03:38:15;17.02;;;5.25;;
75189;SDS011;69198;44.694;37.790;2023-07-28T03:39:16;11.73;;;4.70;;
75189;SDS011;69198;44.694;37.790;2023-07-28T03:40:20;16.20;;;5.45;;
75189;SDS011;69198;44.694;37.790;2023-07-28T03:41:25;14.52;;;4.85;;
75189;SDS011;69198;44.694;37.790;2023-07-28T03:42:26;14.13;;;5.07;;
75189;SDS011;69198;44.694;37.790;2023-07-28T03:43:27;15.30;;;4.47;;
75189;SDS011;69198;44.694;37.790;2023-07-28T03:44:28;12.17;;;4.57;;
75189;SDS011;69198;44.694;37.790;2023-07-28T03:45:29;15.30;;;4.97;;
75189;SDS011;69198;44.694;37.790;2023-07-28T03:46:30;15.10;;;4.93;;
75189;SDS011;69198;44.694;37.790;2023-07-28T03:47:31;14.27;;;4.70;;
75189;SDS011;69198;44.694;37.790;2023-07-28T03:48:33;14.75;;;4.90;;
75189;SDS011;69198;44.694;37.790;2023-07-28T03:49:34;15.40;;;4.90;;
75189;SDS011;69198;44.694;37.790;2023-07-28T03:50:35;14.65;;;4.57;;
75189;SDS011;69198;44.694;37.790;2023-07-28T03:51:36;16.40;;;4.57;;
75189;SDS011;69198;44.694;37.790;2023-07-28T03:52:37;12.30;;;4.50;;
75189;SDS011;69198;44.694;37.790;2023-07-28T03:53:38;13.75;;;4.40;;
75189;SDS011;69198;44.694;37.790;2023-07-28T03:54:39;13.27;;;4.30;;
75189;SDS011;69198;44.694;37.790;2023-07-28T03:55:40;10.93;;;4.00;;
75189;SDS011;69198;44.694;37.790;2023-07-28T03:56:41;12.77;;;4.28;;
75189;SDS011;69198;44.694;37.790;2023-07-28T03:57:43;14.50;;;4.72;;
75189;SDS011;69198;44.694;37.790;2023-07-28T03:58:44;17.80;;;4.38;;
75189;SDS011;69198;44.694;37.790;2023-07-28T03:59:45;18.35;;;4.78;;
75189;SDS011;69198;44.694;37.790;2023-07-28T04:00:46;14.70;;;4.68;;
75189;SDS011;69198;44.694;37.790;2023-07-28T04:01:47;11.13;;;4.38;;
75189;SDS011;69198;44.694;37.790;2023-07-28T04:02:48;14.77;;;4.20;;
75189;SDS011;69198;44.694;37.790;2023-07-28T04:03:49;11.43;;;3.67;;
75189;SDS011;69198;44.694;37.790;2023-07-28T04:04:54;13.47;;;3.70;;
75189;SDS011;69198;44.694;37.790;2023-07-28T04:05:55;15.45;;;3.67;;
75189;SDS011;69198;44.694;37.790;2023-07-28T04:06:56;21.88;;;4.10;;
75189;SDS011;69198;44.694;37.790;2023-07-28T04:07:57;12.27;;;3.40;;
75189;SDS011;69198;44.694;37.790;2023-07-28T04:08:58;13.25;;;3.00;;
75189;SDS011;69198;44.694;37.790;2023-07-28T04:09:59;15.48;;;2.90;;
75189;SDS011;69198;44.694;37.790;2023-07-28T04:11:00;24.08;;;3.22;;
75189;SDS011;69198;44.694;37.790;2023-07-28T04:12:02;23.90;;;3.00;;
75189;SDS011;69198;44.694;37.790;2023-07-28T04:13:04;13.07;;;2.03;;
75189;SDS011;69198;44.694;37.790;2023-07-28T04:14:05;18.53;;;2.53;;
75189;SDS011;69198;44.694;37.790;2023-07-28T04:15:06;12.32;;;2.17;;
75189;SDS011;69198;44.694;37.790;2023-07-28T04:16:08;12.43;;;1.80;;
75189;SDS011;69198;44.694;37.790;2023-07-28T04:17:09;39.20;;;3.30;;
75189;SDS011;69198;44.694;37.790;2023-07-28T04:18:11;18.48;;;2.90;;
75189;SDS011;69198;44.694;37.790;2023-07-28T04:19:12;13.68;;;1.83;;
75189;SDS011;69198;44.694;37.790;2023-07-28T04:20:14;9.32;;;1.90;;
75189;SDS011;69198;44.694;37.790;2023-07-28T04:21:15;17.17;;;2.05;;
75189;SDS011;69198;44.694;37.790;2023-07-28T04:22:16;77.63;;;4.65;;
75189;SDS011;69198;44.694;37.790;2023-07-28T04:23:22;85.28;;;5.78;;
75189;SDS011;69198;44.694;37.790;2023-07-28T04:24:23;65.97;;;4.70;;
75189;SDS011;69198;44.694;37.790;2023-07-28T04:25:25;33.38;;;2.53;;
75189;SDS011;69198;44.694;37.790;2023-07-28T04:26:26;18.42;;;1.75;;
75189;SDS011;69198;44.694;37.790;2023-07-28T04:27:36;18.98;;;1.52;;
75189;SDS011;69198;44.694;37.790;2023-07-28T04:28:39;19.50;;;1.70;;
75189;SDS011;69198;44.694;37.790;2023-07-28T04:29:40;12.27;;;1.30;;
75189;SDS011;69198;44.694;37.790;2023-07-28T04:30:44;9.05;;;1.00;;
75189;SDS011;69198;44.694;37.790;2023-07-28T04:31:58;9.00;;;1.10;;
75189;SDS011;69198;44.694;37.790;2023-07-28T04:33:05;11.82;;;1.30;;
75189;SDS011;69198;44.694;37.790;2023-07-28T04:34:11;8.48;;;1.10;;
75189;SDS011;69198;44.694;37.790;2023-07-28T04:35:31;40.67;;;2.30;;
75189;SDS011;69198;44.694;37.790;2023-07-28T04:36:48;18.95;;;2.05;;
75189;SDS011;69198;44.694;37.790;2023-07-28T04:37:54;23.27;;;1.30;;
75189;SDS011;69198;44.694;37.790;2023-07-28T04:39:16;8.13;;;0.90;;
75189;SDS011;69198;44.694;37.790;2023-07-28T04:40:18;7.07;;;0.90;;
75189;SDS011;69198;44.694;37.790;2023-07-28T04:41:19;13.48;;;1.42;;
75189;SDS011;69198;44.694;37.790;2023-07-28T04:42:26;17.23;;;1.25;;
75189;SDS011;69198;44.694;37.790;2023-07-28T04:43:31;10.07;;;1.25;;
75189;SDS011;69198;44.694;37.790;2023-07-28T04:44:32;7.00;;;0.80;;
75189;SDS011;69198;44.694;37.790;2023-07-28T04:45:36;6.63;;;0.70;;
75189;SDS011;69198;44.694;37.790;2023-07-28T04:46:44;18.30;;;1.53;;
75189;SDS011;69198;44.694;37.790;2023-07-28T04:47:48;9.43;;;0.95;;
75189;SDS011;69198;44.694;37.790;2023-07-28T04:48:49;7.13;;;0.93;;
75189;SDS011;69198;44.694;37.790;2023-07-28T04:50:28;7.25;;;0.95;;
75189;SDS011;69198;44.694;37.790;2023-07-28T04:51:48;9.23;;;1.10;;
75189;SDS011;69198;44.694;37.790;2023-07-28T04:52:52;7.03;;;1.00;;
75189;SDS011;69198;44.694;37.790;2023-07-28T04:54:22;7.82;;;1.10;;
75189;SDS011;69198;44.694;37.790;2023-07-28T04:55:23;15.50;;;1.23;;
75189;SDS011;69198;44.694;37.790;2023-07-28T04:56:24;9.05;;;1.20;;
75189;SDS011;69198;44.694;37.790;2023-07-28T04:57:25;12.43;;;1.10;;
75189;SDS011;69198;44.694;37.790;2023-07-28T04:58:26;6.67;;;1.20;;
75189;SDS011;69198;44.694;37.790;2023-07-28T04:59:28;9.57;;;0.93;;
75189;SDS011;69198;44.694;37.790;2023-07-28T05:00:29;10.65;;;1.30;;
75189;SDS011;69198;44.694;37.790;2023-07-28T05:01:30;8.90;;;1.25;;
75189;SDS011;69198;44.694;37.790;2023-07-28T05:02:31;7.85;;;1.45;;
75189;SDS011;69198;44.694;37.790;2023-07-28T05:03:33;7.85;;;1.10;;
75189;SDS011;69198;44.694;37.790;2023-07-28T05:04:47;6.65;;;1.30;;
75189;SDS011;69198;44.694;37.790;2023-07-28T05:05:48;8.13;;;1.30;;
75189;SDS011;69198;44.694;37.790;2023-07-28T05:06:50;10.70;;;1.30;;
75189;SDS011;69198;44.694;37.790;2023-07-28T05:07:51;7.27;;;0.93;;
75189;SDS011;69198;44.694;37.790;2023-07-28T05:08:52;8.35;;;1.30;;
75189;SDS011;69198;44.694;37.790;2023-07-28T05:10:06;7.85;;;1.30;;
75189;SDS011;69198;44.694;37.790;2023-07-28T05:11:07;10.10;;;1.13;;
75189;SDS011;69198;44.694;37.790;2023-07-28T05:12:08;9.60;;;1.30;;
75189;SDS011;69198;44.694;37.790;2023-07-28T05:13:16;10.57;;;1.30;;
75189;SDS011;69198;44.694;37.790;2023-07-28T05:14:26;5.15;;;1.10;;
75189;SDS011;69198;44.694;37.790;2023-07-28T05:15:27;6.90;;;1.10;;
75189;SDS011;69198;44.694;37.790;2023-07-28T05:16:28;5.65;;;1.13;;
75189;SDS011;69198;44.694;37.790;2023-07-28T05:17:44;6.40;;;0.95;;
75189;SDS011;69198;44.694;37.790;2023-07-28T05:19:19;5.90;;;1.00;;
75189;SDS011;69198;44.694;37.790;2023-07-28T05:20:32;8.00;;;1.05;;
75189;SDS011;69198;44.694;37.790;2023-07-28T05:21:47;7.28;;;0.90;;
75189;SDS011;69198;44.694;37.790;2023-07-28T05:22:51;6.38;;;1.00;;
75189;SDS011;69198;44.694;37.790;2023-07-28T05:23:53;30.95;;;2.28;;
75189;SDS011;69198;44.694;37.790;2023-07-28T05:24:54;13.35;;;1.40;;
75189;SDS011;69198;44.694;37.790;2023-07-28T05:25:57;9.38;;;1.10;;
75189;SDS011;69198;44.694;37.790;2023-07-28T05:26:58;7.57;;;1.63;;
75189;SDS011;69198;44.694;37.790;2023-07-28T05:27:59;9.70;;;1.10;;
75189;SDS011;69198;44.694;37.790;2023-07-28T05:29:02;8.00;;;1.10;;
75189;SDS011;69198;44.694;37.790;2023-07-28T05:30:03;7.53;;;1.53;;
75189;SDS011;69198;44.694;37.790;2023-07-28T05:31:05;9.07;;;1.30;;
75189;SDS011;69198;44.694;37.790;2023-07-28T05:32:07;9.35;;;1.42;;
75189;SDS011;69198;44.694;37.790;2023-07-28T05:33:16;5.10;;;1.23;;
75189;SDS011;69198;44.694;37.790;2023-07-28T05:34:23;8.90;;;1.10;;
75189;SDS011;69198;44.694;37.790;2023-07-28T05:35:24;9.30;;;1.50;;
75189;SDS011;69198;44.694;37.790;2023-07-28T05:36:24;8.82;;;1.13;;
75189;SDS011;69198;44.694;37.790;2023-07-28T05:37:30;9.45;;;1.13;;
75189;SDS011;69198;44.694;37.790;2023-07-28T05:38:31;7.33;;;1.57;;
75189;SDS011;69198;44.694;37.790;2023-07-28T05:39:32;7.88;;;1.00;;
75189;SDS011;69198;44.694;37.790;2023-07-28T05:40:33;10.02;;;1.30;;
75189;SDS011;69198;44.694;37.790;2023-07-28T05:41:34;12.07;;;1.40;;
75189;SDS011;69198;44.694;37.790;2023-07-28T05:42:37;7.78;;;1.42;;
75189;SDS011;69198;44.694;37.790;2023-07-28T05:43:38;7.32;;;1.17;;
75189;SDS011;69198;44.694;37.790;2023-07-28T05:44:39;6.57;;;1.10;;
75189;SDS011;69198;44.694;37.790;2023-07-28T05:45:45;10.30;;;1.33;;
75189;SDS011;69198;44.694;37.790;2023-07-28T05:46:48;10.57;;;1.65;;
75189;SDS011;69198;44.694;37.790;2023-07-28T05:47:50;8.68;;;1.50;;
75189;SDS011;69198;44.694;37.790;2023-07-28T05:48:51;6.77;;;1.40;;
75189;SDS011;69198;44.694;37.790;2023-07-28T05:49:54;8.35;;;1.10;;
75189;SDS011;69198;44.694;37.790;2023-07-28T05:50:55;11.60;;;1.35;;
75189;SDS011;69198;44.694;37.790;2023-07-28T05:51:56;8.57;;;1.10;;
75189;SDS011;69198;44.694;37.790;2023-07-28T05:52:58;8.23;;;1.02;;
75189;SDS011;69198;44.694;37.790;2023-07-28T05:53:59;8.88;;;1.05;;
75189;SDS011;69198;44.694;37.790;2023-07-28T05:55:00;9.15;;;1.23;;
75189;SDS011;69198;44.694;37.790;2023-07-28T05:56:02;9.80;;;1.50;;
75189;SDS011;69198;44.694;37.790;2023-07-28T05:57:05;7.15;;;1.13;;
75189;SDS011;69198;44.694;37.790;2023-07-28T05:58:07;7.68;;;1.05;;
75189;SDS011;69198;44.694;37.790;2023-07-28T05:59:16;9.50;;;0.97;;
75189;SDS011;69198;44.694;37.790;2023-07-28T06:00:17;12.02;;;1.10;;
75189;SDS011;69198;44.694;37.790;2023-07-28T06:01:18;10.27;;;1.10;;
75189;SDS011;69198;44.694;37.790;2023-07-28T06:02:52;10.45;;;1.52;;
75189;SDS011;69198;44.694;37.790;2023-07-28T06:04:13;8.52;;;0.70;;
75189;SDS011;69198;44.694;37.790;2023-07-28T06:05:21;7.80;;;0.90;;
75189;SDS011;69198;44.694;37.790;2023-07-28T06:06:22;7.05;;;0.88;;
75189;SDS011;69198;44.694;37.790;2023-07-28T06:07:23;11.95;;;1.05;;
75189;SDS011;69198;44.694;37.790;2023-07-28T06:08:24;9.60;;;1.00;;
75189;SDS011;69198;44.694;37.790;2023-07-28T06:09:25;6.53;;;0.70;;
75189;SDS011;69198;44.694;37.790;2023-07-28T06:10:26;7.85;;;0.80;;
75189;SDS011;69198;44.694;37.790;2023-07-28T06:11:27;8.07;;;1.10;;
75189;SDS011;69198;44.694;37.790;2023-07-28T06:12:28;7.75;;;0.90;;
75189;SDS011;69198;44.694;37.790;2023-07-28T06:13:30;6.30;;;1.08;;